sensor_id;sensor_type;location;lat;lon;timestamp;pressure;altitude;pressure_sealevel;temperature;humidity
20630;BME280;17386;43.846;25.950;2023-03-15T00:01:35;100265.41;;;8.16;51.23
20630;BME280;17386;43.846;25.950;2023-03-15T00:04:00;100261.16;;;8.12;51.46
20630;BME280;17386;43.846;25.950;2023-03-15T00:06:25;100250.53;;;8.13;51.55
20630;BME280;17386;43.846;25.950;2023-03-15T00:08:51;100256.13;;;8.04;51.81
20630;BME280;17386;43.846;25.950;2023-03-15T00:11:17;100251.09;;;7.97;52.06
20630;BME280;17386;43.846;25.950;2023-03-15T00:13:44;100251.97;;;7.95;52.01
20630;BME280;17386;43.846;25.950;2023-03-15T00:16:11;100239.59;;;7.98;52.30
20630;BME280;17386;43.846;25.950;2023-03-15T00:18:41;100233.31;;;8.00;52.39
20630;BME280;17386;43.846;25.950;2023-03-15T00:21:06;100238.66;;;7.99;52.74
20630;BME280;17386;43.846;25.950;2023-03-15T00:23:32;100239.59;;;7.98;53.09
20630;BME280;17386;43.846;25.950;2023-03-15T00:25:57;100238.88;;;7.92;53.69
20630;BME280;17386;43.846;25.950;2023-03-15T00:28:22;100230.22;;;7.87;54.08
20630;BME280;17386;43.846;25.950;2023-03-15T00:30:48;100220.59;;;7.85;54.29
20630;BME280;17386;43.846;25.950;2023-03-15T00:33:14;100235.56;;;7.86;54.30
20630;BME280;17386;43.846;25.950;2023-03-15T00:35:41;100233.16;;;7.78;54.55
20630;BME280;17386;43.846;25.950;2023-03-15T00:38:07;100234.16;;;7.74;54.93
20630;BME280;17386;43.846;25.950;2023-03-15T00:40:34;100226.53;;;7.65;55.17
20630;BME280;17386;43.846;25.950;2023-03-15T00:43:00;100211.97;;;7.52;55.71
20630;BME280;17386;43.846;25.950;2023-03-15T00:45:26;100216.44;;;7.50;56.13
20630;BME280;17386;43.846;25.950;2023-03-15T00:47:52;100213.13;;;7.43;56.35
20630;BME280;17386;43.846;25.950;2023-03-15T00:50:18;100209.72;;;7.39;56.43
20630;BME280;17386;43.846;25.950;2023-03-15T00:52:44;100208.03;;;7.37;56.83
20630;BME280;17386;43.846;25.950;2023-03-15T00:55:15;100200.19;;;7.34;56.99
20630;BME280;17386;43.846;25.950;2023-03-15T00:57:42;100192.25;;;7.35;57.28
20630;BME280;17386;43.846;25.950;2023-03-15T01:00:10;100182.59;;;7.34;57.62
20630;BME280;17386;43.846;25.950;2023-03-15T01:02:36;100192.66;;;7.22;58.03
20630;BME280;17386;43.846;25.950;2023-03-15T01:05:06;100181.31;;;7.18;58.35
20630;BME280;17386;43.846;25.950;2023-03-15T01:07:32;100190.09;;;7.19;58.45
20630;BME280;17386;43.846;25.950;2023-03-15T01:09:58;100183.03;;;7.19;58.59
20630;BME280;17386;43.846;25.950;2023-03-15T01:12:23;100172.53;;;7.18;58.87
20630;BME280;17386;43.846;25.950;2023-03-15T01:14:49;100182.19;;;7.19;59.01
20630;BME280;17386;43.846;25.950;2023-03-15T01:17:14;100184.88;;;7.17;59.41
20630;BME280;17386;43.846;25.950;2023-03-15T01:19:40;100182.22;;;7.17;59.43
20630;BME280;17386;43.846;25.950;2023-03-15T01:22:05;100181.31;;;7.18;59.34
20630;BME280;17386;43.846;25.950;2023-03-15T01:24:30;100178.81;;;7.13;59.85
20630;BME280;17386;43.846;25.950;2023-03-15T01:26:56;100172.91;;;7.05;60.04
20630;BME280;17386;43.846;25.950;2023-03-15T01:29:21;100176.97;;;6.88;60.79
20630;BME280;17386;43.846;25.950;2023-03-15T01:31:47;100166.72;;;6.77;61.61
20630;BME280;17386;43.846;25.950;2023-03-15T01:34:12;100172.31;;;6.66;62.39
20630;BME280;17386;43.846;25.950;2023-03-15T01:36:37;100163.09;;;6.50;63.10
20630;BME280;17386;43.846;25.950;2023-03-15T01:39:03;100157.97;;;6.45;63.59
20630;BME280;17386;43.846;25.950;2023-03-15T01:41:28;100155.81;;;6.27;64.56
20630;BME280;17386;43.846;25.950;2023-03-15T01:43:54;100158.72;;;6.16;65.19
20630;BME280;17386;43.846;25.950;2023-03-15T01:46:28;100158.66;;;6.19;65.38
20630;BME280;17386;43.846;25.950;2023-03-15T01:51:59;100150.53;;;5.94;67.15
20630;BME280;17386;43.846;25.950;2023-03-15T01:54:46;100153.56;;;5.78;68.14
20630;BME280;17386;43.846;25.950;2023-03-15T01:57:24;100147.84;;;5.60;69.08
20630;BME280;17386;43.846;25.950;2023-03-15T02:00:02;100137.41;;;5.56;69.51
20630;BME280;17386;43.846;25.950;2023-03-15T02:02:32;100145.16;;;5.62;69.62
20630;BME280;17386;43.846;25.950;2023-03-15T02:05:02;100142.34;;;5.69;69.16
20630;BME280;17386;43.846;25.950;2023-03-15T02:07:33;100147.66;;;5.68;69.13
20630;BME280;17386;43.846;25.950;2023-03-15T02:10:09;100150.53;;;5.59;69.49
20630;BME280;17386;43.846;25.950;2023-03-15T02:12:42;100150.44;;;5.63;69.14
20630;BME280;17386;43.846;25.950;2023-03-15T02:15:09;100152.53;;;5.47;69.88
20630;BME280;17386;43.846;25.950;2023-03-15T02:17:43;100150.97;;;5.40;70.63
20630;BME280;17386;43.846;25.950;2023-03-15T02:25:41;100143.34;;;5.28;71.49
20630;BME280;17386;43.846;25.950;2023-03-15T02:28:12;100151.91;;;5.38;71.16
20630;BME280;17386;43.846;25.950;2023-03-15T02:30:39;100143.34;;;5.28;71.74
20630;BME280;17386;43.846;25.950;2023-03-15T02:33:10;100142.53;;;5.26;71.83
20630;BME280;17386;43.846;25.950;2023-03-15T02:35:39;100150.56;;;5.21;72.41
20630;BME280;17386;43.846;25.950;2023-03-15T02:38:04;100129.50;;;5.21;72.41
20630;BME280;17386;43.846;25.950;2023-03-15T02:40:30;100133.72;;;5.27;72.20
20630;BME280;17386;43.846;25.950;2023-03-15T02:43:02;100136.97;;;5.38;72.28
20630;BME280;17386;43.846;25.950;2023-03-15T02:45:31;100129.84;;;5.43;72.03
20630;BME280;17386;43.846;25.950;2023-03-15T02:47:59;100133.72;;;5.27;73.11
20630;BME280;17386;43.846;25.950;2023-03-15T02:50:26;100148.59;;;5.30;72.91
20630;BME280;17386;43.846;25.950;2023-03-15T02:52:51;100145.16;;;5.26;73.04
20630;BME280;17386;43.846;25.950;2023-03-15T02:55:17;100150.66;;;5.17;73.64
20630;BME280;17386;43.846;25.950;2023-03-15T02:57:43;100134.94;;;5.12;73.72
20630;BME280;17386;43.846;25.950;2023-03-15T03:00:10;100151.66;;;5.11;73.89
20630;BME280;17386;43.846;25.950;2023-03-15T03:02:44;100158.81;;;5.05;74.20
20630;BME280;17386;43.846;25.950;2023-03-15T03:05:11;100163.19;;;5.06;74.14
20630;BME280;17386;43.846;25.950;2023-03-15T03:07:37;100164.81;;;5.11;74.08
20630;BME280;17386;43.846;25.950;2023-03-15T03:10:04;100165.63;;;5.15;74.06
20630;BME280;17386;43.846;25.950;2023-03-15T03:12:30;100172.56;;;5.17;73.92
20630;BME280;17386;43.846;25.950;2023-03-15T03:14:56;100175.22;;;5.17;73.79
20630;BME280;17386;43.846;25.950;2023-03-15T03:17:22;100175.97;;;5.22;73.56
20630;BME280;17386;43.846;25.950;2023-03-15T03:19:50;100165.50;;;5.19;73.38
20630;BME280;17386;43.846;25.950;2023-03-15T03:22:16;100159.22;;;5.25;73.09
20630;BME280;17386;43.846;25.950;2023-03-15T03:24:42;100151.50;;;5.17;73.24
20630;BME280;17386;43.846;25.950;2023-03-15T03:27:13;100159.19;;;5.27;73.08
20630;BME280;17386;43.846;25.950;2023-03-15T03:29:40;100156.50;;;5.28;72.93
20630;BME280;17386;43.846;25.950;2023-03-15T03:32:06;100160.06;;;5.27;72.92
20630;BME280;17386;43.846;25.950;2023-03-15T03:34:31;100161.97;;;5.20;73.31
20630;BME280;17386;43.846;25.950;2023-03-15T03:36:57;100171.66;;;5.18;73.68
20630;BME280;17386;43.846;25.950;2023-03-15T03:39:22;100162.88;;;5.19;73.73
20630;BME280;17386;43.846;25.950;2023-03-15T03:41:48;100151.38;;;5.24;73.54
20630;BME280;17386;43.846;25.950;2023-03-15T03:44:14;100155.66;;;5.28;73.39
20630;BME280;17386;43.846;25.950;2023-03-15T03:46:40;100146.88;;;5.29;73.18
20630;BME280;17386;43.846;25.950;2023-03-15T03:49:05;100145.94;;;5.31;73.21
20630;BME280;17386;43.846;25.950;2023-03-15T03:51:31;100151.41;;;5.22;73.35
20630;BME280;17386;43.846;25.950;2023-03-15T03:53:58;100152.47;;;5.13;73.70
20630;BME280;17386;43.846;25.950;2023-03-15T03:56:23;100139.47;;;5.06;74.47
20630;BME280;17386;43.846;25.950;2023-03-15T03:58:49;100141.97;;;5.12;74.43
20630;BME280;17386;43.846;25.950;2023-03-15T04:01:15;100144.69;;;5.09;74.25
20630;BME280;17386;43.846;25.950;2023-03-15T04:03:41;100144.84;;;5.03;74.67
20630;BME280;17386;43.846;25.950;2023-03-15T04:06:07;100149.59;;;4.85;75.26
20630;BME280;17386;43.846;25.950;2023-03-15T04:08:32;100147.69;;;4.92;75.63
20630;BME280;17386;43.846;25.950;2023-03-15T04:10:58;100133.75;;;4.87;76.09
20630;BME280;17386;43.846;25.950;2023-03-15T04:13:24;100137.59;;;4.74;77.54
20630;BME280;17386;43.846;25.950;2023-03-15T04:15:50;100126.16;;;4.75;78.34
20630;BME280;17386;43.846;25.950;2023-03-15T04:18:16;100131.47;;;4.72;78.66
20630;BME280;17386;43.846;25.950;2023-03-15T04:20:42;100125.19;;;4.79;78.46
20630;BME280;17386;43.846;25.950;2023-03-15T04:23:17;100125.94;;;4.84;78.64
20630;BME280;17386;43.846;25.950;2023-03-15T04:25:47;100131.13;;;4.88;78.36
20630;BME280;17386;43.846;25.950;2023-03-15T04:28:13;100127.53;;;4.91;78.49
20630;BME280;17386;43.846;25.950;2023-03-15T04:30:38;100127.75;;;4.82;79.02
20630;BME280;17386;43.846;25.950;2023-03-15T04:33:04;100138.88;;;4.93;78.81
20630;BME280;17386;43.846;25.950;2023-03-15T04:35:32;100143.25;;;4.94;78.65
20630;BME280;17386;43.846;25.950;2023-03-15T04:37:59;100144.09;;;4.96;78.54
20630;BME280;17386;43.846;25.950;2023-03-15T04:40:25;100143.97;;;5.01;78.07
20630;BME280;17386;43.846;25.950;2023-03-15T04:42:52;100134.53;;;4.92;78.29
20630;BME280;17386;43.846;25.950;2023-03-15T04:45:20;100136.59;;;4.78;78.28
20630;BME280;17386;43.846;25.950;2023-03-15T04:47:45;100144.44;;;4.81;78.61
20630;BME280;17386;43.846;25.950;2023-03-15T04:50:11;100148.81;;;4.80;78.13
20630;BME280;17386;43.846;25.950;2023-03-15T04:52:37;100134.84;;;4.78;78.07
20630;BME280;17386;43.846;25.950;2023-03-15T04:55:03;100146.03;;;4.88;77.56
20630;BME280;17386;43.846;25.950;2023-03-15T04:57:29;100140.69;;;4.91;77.59
20630;BME280;17386;43.846;25.950;2023-03-15T04:59:54;100137.84;;;5.00;76.97
20630;BME280;17386;43.846;25.950;2023-03-15T05:02:21;100134.94;;;5.12;76.67
20630;BME280;17386;43.846;25.950;2023-03-15T05:04:46;100129.50;;;5.20;76.21
20630;BME280;17386;43.846;25.950;2023-03-15T05:07:12;100121.50;;;5.25;75.82
20630;BME280;17386;43.846;25.950;2023-03-15T05:09:37;100124.06;;;5.28;75.67
20630;BME280;17386;43.846;25.950;2023-03-15T05:12:04;100120.31;;;5.38;75.40
20630;BME280;17386;43.846;25.950;2023-03-15T05:14:30;100127.06;;;5.48;74.88
20630;BME280;17386;43.846;25.950;2023-03-15T05:16:56;100114.59;;;5.56;74.76
20630;BME280;17386;43.846;25.950;2023-03-15T05:19:26;100108.22;;;5.65;75.12
20630;BME280;17386;43.846;25.950;2023-03-15T05:21:52;100113.19;;;5.75;74.19
20630;BME280;17386;43.846;25.950;2023-03-15T05:24:21;100107.59;;;5.88;73.67
20630;BME280;17386;43.846;25.950;2023-03-15T05:26:47;100092.47;;;5.97;73.34
20630;BME280;17386;43.846;25.950;2023-03-15T05:29:13;100096.69;;;6.03;72.92
20630;BME280;17386;43.846;25.950;2023-03-15T05:31:39;100099.03;;;6.14;72.49
20630;BME280;17386;43.846;25.950;2023-03-15T05:34:05;100097.16;;;6.17;72.04
20630;BME280;17386;43.846;25.950;2023-03-15T05:36:32;100089.13;;;6.22;72.16
20630;BME280;17386;43.846;25.950;2023-03-15T05:38:58;100088.75;;;6.36;71.84
20630;BME280;17386;43.846;25.950;2023-03-15T05:41:23;100087.59;;;6.44;71.63
20630;BME280;17386;43.846;25.950;2023-03-15T05:43:49;100097.28;;;6.44;71.55
20630;BME280;17386;43.846;25.950;2023-03-15T05:46:15;100096.59;;;6.37;71.41
20630;BME280;17386;43.846;25.950;2023-03-15T05:48:41;100097.66;;;6.32;71.88
20630;BME280;17386;43.846;25.950;2023-03-15T05:51:07;100099.47;;;6.29;72.00
20630;BME280;17386;43.846;25.950;2023-03-15T05:53:32;100099.41;;;6.31;72.09
20630;BME280;17386;43.846;25.950;2023-03-15T05:55:58;100105.31;;;6.41;71.98
20630;BME280;17386;43.846;25.950;2023-03-15T05:58:23;100094.41;;;6.53;71.45
20630;BME280;17386;43.846;25.950;2023-03-15T06:00:49;100098.59;;;6.58;71.05
20630;BME280;17386;43.846;25.950;2023-03-15T06:03:15;100087.75;;;6.40;71.55
20630;BME280;17386;43.846;25.950;2023-03-15T06:05:41;100097.13;;;6.50;72.24
20630;BME280;17386;43.846;25.950;2023-03-15T06:08:06;100095.03;;;6.61;71.65
20630;BME280;17386;43.846;25.950;2023-03-15T06:10:32;100091.25;;;6.70;71.41
20630;BME280;17386;43.846;25.950;2023-03-15T06:12:58;100081.28;;;6.79;71.19
20630;BME280;17386;43.846;25.950;2023-03-15T06:15:24;100082.44;;;6.99;71.16
20630;BME280;17386;43.846;25.950;2023-03-15T06:17:50;100077.13;;;7.00;70.49
20630;BME280;17386;43.846;25.950;2023-03-15T06:20:15;100080.81;;;6.95;71.06
20630;BME280;17386;43.846;25.950;2023-03-15T06:22:41;100078.13;;;6.96;71.51
20630;BME280;17386;43.846;25.950;2023-03-15T06:25:07;100079.66;;;7.03;71.30
20630;BME280;17386;43.846;25.950;2023-03-15T06:27:33;100082.41;;;7.27;71.00
20630;BME280;17386;43.846;25.950;2023-03-15T06:29:58;100075.47;;;7.51;69.73
20630;BME280;17386;43.846;25.950;2023-03-15T06:32:24;100069.78;;;7.63;69.41
20630;BME280;17386;43.846;25.950;2023-03-15T06:34:50;100069.03;;;7.84;68.90
20630;BME280;17386;43.846;25.950;2023-03-15T06:37:16;100075.38;;;8.04;68.08
20630;BME280;17386;43.846;25.950;2023-03-15T06:39:41;100071.59;;;8.36;67.28
20630;BME280;17386;43.846;25.950;2023-03-15T06:42:12;100072.47;;;8.60;65.98
20630;BME280;17386;43.846;25.950;2023-03-15T06:44:38;100078.72;;;8.81;65.49
20630;BME280;17386;43.846;25.950;2023-03-15T06:47:05;100074.44;;;8.76;65.08
20630;BME280;17386;43.846;25.950;2023-03-15T06:49:30;100068.59;;;8.90;65.14
20630;BME280;17386;43.846;25.950;2023-03-15T06:51:56;100072.88;;;8.94;64.93
20630;BME280;17386;43.846;25.950;2023-03-15T06:54:22;100078.47;;;9.09;64.78
20630;BME280;17386;43.846;25.950;2023-03-15T06:56:48;100072.91;;;9.37;63.95
20630;BME280;17386;43.846;25.950;2023-03-15T06:59:13;100074.75;;;9.56;63.03
20630;BME280;17386;43.846;25.950;2023-03-15T07:01:38;100070.97;;;9.62;62.82
20630;BME280;17386;43.846;25.950;2023-03-15T07:04:04;100074.50;;;9.63;63.27
20630;BME280;17386;43.846;25.950;2023-03-15T07:06:30;100071.97;;;9.80;62.68
20630;BME280;17386;43.846;25.950;2023-03-15T07:08:56;100068.94;;;9.89;62.15
20630;BME280;17386;43.846;25.950;2023-03-15T07:11:21;100060.88;;;10.11;61.85
20630;BME280;17386;43.846;25.950;2023-03-15T07:13:47;100061.75;;;10.32;60.91
20630;BME280;17386;43.846;25.950;2023-03-15T07:16:12;100048.84;;;10.43;60.70
20630;BME280;17386;43.846;25.950;2023-03-15T07:18:37;100053.84;;;10.49;60.35
20630;BME280;17386;43.846;25.950;2023-03-15T07:21:04;100053.38;;;10.60;60.62
20630;BME280;17386;43.846;25.950;2023-03-15T07:23:31;100044.31;;;10.83;60.34
20630;BME280;17386;43.846;25.950;2023-03-15T07:25:57;100047.03;;;11.00;59.42
20630;BME280;17386;43.846;25.950;2023-03-15T07:28:24;100043.25;;;11.23;58.60
20630;BME280;17386;43.846;25.950;2023-03-15T07:30:58;100050.75;;;11.32;58.87
20630;BME280;17386;43.846;25.950;2023-03-15T07:33:24;100046.25;;;11.34;61.26
20630;BME280;17386;43.846;25.950;2023-03-15T07:35:51;100034.09;;;11.46;61.54
20630;BME280;17386;43.846;25.950;2023-03-15T07:38:18;100037.63;;;11.64;61.24
20630;BME280;17386;43.846;25.950;2023-03-15T07:40:44;100040.16;;;11.49;61.56
20630;BME280;17386;43.846;25.950;2023-03-15T07:43:10;100034.66;;;11.52;61.71
20630;BME280;17386;43.846;25.950;2023-03-15T07:45:38;100036.59;;;11.66;61.38
20630;BME280;17386;43.846;25.950;2023-03-15T07:48:04;100036.59;;;11.66;61.90
20630;BME280;17386;43.846;25.950;2023-03-15T07:50:29;100036.16;;;11.75;61.74
20630;BME280;17386;43.846;25.950;2023-03-15T07:52:55;100031.16;;;11.87;61.79
20630;BME280;17386;43.846;25.950;2023-03-15T07:55:20;100024.66;;;11.92;61.83
20630;BME280;17386;43.846;25.950;2023-03-15T07:57:46;100025.63;;;12.07;61.87
20630;BME280;17386;43.846;25.950;2023-03-15T08:00:11;100024.91;;;12.21;61.09
20630;BME280;17386;43.846;25.950;2023-03-15T08:02:38;100023.47;;;11.98;61.73
20630;BME280;17386;43.846;25.950;2023-03-15T08:05:04;100018.16;;;11.98;61.36
20630;BME280;17386;43.846;25.950;2023-03-15T08:07:29;100017.19;;;11.99;60.55
20630;BME280;17386;43.846;25.950;2023-03-15T08:09:55;100019.22;;;12.11;59.43
20630;BME280;17386;43.846;25.950;2023-03-15T08:12:23;100016.66;;;12.10;59.51
20630;BME280;17386;43.846;25.950;2023-03-15T08:14:48;100021.03;;;11.93;59.81
20630;BME280;17386;43.846;25.950;2023-03-15T08:17:14;100009.09;;;12.18;59.36
20630;BME280;17386;43.846;25.950;2023-03-15T08:19:40;100013.16;;;12.25;58.14
20630;BME280;17386;43.846;25.950;2023-03-15T08:22:06;100004.94;;;12.29;58.07
20630;BME280;17386;43.846;25.950;2023-03-15T08:24:32;100001.75;;;12.39;57.78
20630;BME280;17386;43.846;25.950;2023-03-15T08:26:58;99987.06;;;12.47;57.28
20630;BME280;17386;43.846;25.950;2023-03-15T08:29:23;99992.75;;;12.57;56.87
20630;BME280;17386;43.846;25.950;2023-03-15T08:31:48;99993.34;;;12.78;56.03
20630;BME280;17386;43.846;25.950;2023-03-15T08:34:14;99987.81;;;12.97;55.57
20630;BME280;17386;43.846;25.950;2023-03-15T08:36:40;99990.06;;;13.20;53.83
20630;BME280;17386;43.846;25.950;2023-03-15T08:39:06;99997.91;;;13.37;53.02
20630;BME280;17386;43.846;25.950;2023-03-15T08:41:32;99996.06;;;13.54;52.65
20630;BME280;17386;43.846;25.950;2023-03-15T08:43:58;100002.38;;;13.67;52.17
20630;BME280;17386;43.846;25.950;2023-03-15T08:46:25;99999.34;;;13.73;51.88
20630;BME280;17386;43.846;25.950;2023-03-15T08:48:50;100004.50;;;13.76;52.30
20630;BME280;17386;43.846;25.950;2023-03-15T08:51:16;100002.56;;;13.64;52.11
20630;BME280;17386;43.846;25.950;2023-03-15T08:53:41;100006.59;;;13.85;51.69
20630;BME280;17386;43.846;25.950;2023-03-15T08:56:07;100020.38;;;13.93;51.20
20630;BME280;17386;43.846;25.950;2023-03-15T08:58:33;100019.03;;;14.01;50.01
20630;BME280;17386;43.846;25.950;2023-03-15T09:00:59;100019.41;;;13.94;50.07
20630;BME280;17386;43.846;25.950;2023-03-15T09:03:24;100016.72;;;13.80;50.32
20630;BME280;17386;43.846;25.950;2023-03-15T09:05:54;100016.34;;;13.86;50.35
20630;BME280;17386;43.846;25.950;2023-03-15T09:08:20;100009.13;;;14.03;49.93
20630;BME280;17386;43.846;25.950;2023-03-15T09:10:45;100013.22;;;14.08;48.99
20630;BME280;17386;43.846;25.950;2023-03-15T09:13:11;100013.59;;;14.02;49.70
20630;BME280;17386;43.846;25.950;2023-03-15T09:15:36;100009.88;;;14.19;49.25
20630;BME280;17386;43.846;25.950;2023-03-15T09:18:02;100006.53;;;14.44;48.65
20630;BME280;17386;43.846;25.950;2023-03-15T09:20:27;100000.69;;;14.66;47.96
20630;BME280;17386;43.846;25.950;2023-03-15T09:22:55;99999.66;;;14.54;48.16
20630;BME280;17386;43.846;25.950;2023-03-15T09:25:22;100008.34;;;14.58;47.70
20630;BME280;17386;43.846;25.950;2023-03-15T09:27:48;100009.28;;;14.71;47.93
20630;BME280;17386;43.846;25.950;2023-03-15T09:30:14;100011.75;;;14.74;47.62
20630;BME280;17386;43.846;25.950;2023-03-15T09:32:39;100010.81;;;14.61;49.01
20630;BME280;17386;43.846;25.950;2023-03-15T09:35:07;100010.94;;;14.59;48.98
20630;BME280;17386;43.846;25.950;2023-03-15T09:37:34;99995.47;;;14.64;49.00
20630;BME280;17386;43.846;25.950;2023-03-15T09:39:59;99995.63;;;14.75;48.61
20630;BME280;17386;43.846;25.950;2023-03-15T09:45:39;99990.00;;;14.66;48.68
20630;BME280;17386;43.846;25.950;2023-03-15T09:47:52;99998.00;;;15.34;46.72
20630;BME280;17386;43.846;25.950;2023-03-15T09:50:25;99983.00;;;15.84;45.30
20630;BME280;17386;43.846;25.950;2023-03-15T09:52:59;99977.63;;;16.22;43.83
20630;BME280;17386;43.846;25.950;2023-03-15T09:55:27;99985.78;;;16.33;43.66
20630;BME280;17386;43.846;25.950;2023-03-15T09:58:00;99980.97;;;16.62;42.45
20630;BME280;17386;43.846;25.950;2023-03-15T10:03:03;99984.06;;;16.20;43.53
20630;BME280;17386;43.846;25.950;2023-03-15T10:05:40;99987.22;;;16.50;43.14
20630;BME280;17386;43.846;25.950;2023-03-15T10:08:11;99979.38;;;16.60;42.26
20630;BME280;17386;43.846;25.950;2023-03-15T10:10:52;99995.38;;;16.98;42.32
20630;BME280;17386;43.846;25.950;2023-03-15T10:16:01;99996.63;;;16.68;42.40
20630;BME280;17386;43.846;25.950;2023-03-15T10:21:10;99979.72;;;16.92;42.15
20630;BME280;17386;43.846;25.950;2023-03-15T10:23:46;99978.19;;;17.01;41.23
20630;BME280;17386;43.846;25.950;2023-03-15T10:26:18;99973.16;;;17.20;40.45
20630;BME280;17386;43.846;25.950;2023-03-15T10:28:46;99972.72;;;17.02;41.02
20630;BME280;17386;43.846;25.950;2023-03-15T10:31:21;99966.97;;;16.95;40.72
20630;BME280;17386;43.846;25.950;2023-03-15T10:33:48;99959.66;;;16.61;41.21
20630;BME280;17386;43.846;25.950;2023-03-15T10:36:19;99957.75;;;16.87;41.11
20630;BME280;17386;43.846;25.950;2023-03-15T10:38:45;99966.28;;;16.68;40.89
20630;BME280;17386;43.846;25.950;2023-03-15T10:41:17;99972.09;;;16.75;40.87
20630;BME280;17386;43.846;25.950;2023-03-15T10:44:02;99967.34;;;16.65;40.38
20630;BME280;17386;43.846;25.950;2023-03-15T10:46:29;99959.44;;;16.88;40.64
20630;BME280;17386;43.846;25.950;2023-03-15T10:48:55;99971.59;;;17.29;40.00
20630;BME280;17386;43.846;25.950;2023-03-15T10:51:27;99951.63;;;17.33;39.62
20630;BME280;17386;43.846;25.950;2023-03-15T10:53:59;99953.75;;;17.63;38.91
20630;BME280;17386;43.846;25.950;2023-03-15T10:56:29;99946.41;;;17.77;38.71
20630;BME280;17386;43.846;25.950;2023-03-15T10:58:56;99938.41;;;17.65;38.46
20630;BME280;17386;43.846;25.950;2023-03-15T11:01:27;99941.97;;;17.76;38.22
20630;BME280;17386;43.846;25.950;2023-03-15T11:04:12;99932.22;;;17.98;38.07
20630;BME280;17386;43.846;25.950;2023-03-15T11:07:02;99935.53;;;17.90;38.35
20630;BME280;17386;43.846;25.950;2023-03-15T11:09:38;99926.78;;;17.53;38.64
20630;BME280;17386;43.846;25.950;2023-03-15T11:12:07;99922.41;;;17.17;38.99
20630;BME280;17386;43.846;25.950;2023-03-15T11:14:36;99913.03;;;17.22;39.29
20630;BME280;17386;43.846;25.950;2023-03-15T11:17:05;99907.69;;;16.99;39.39
20630;BME280;17386;43.846;25.950;2023-03-15T11:19:35;99902.78;;;16.92;40.36
20630;BME280;17386;43.846;25.950;2023-03-15T11:22:03;99896.75;;;17.13;39.90
20630;BME280;17386;43.846;25.950;2023-03-15T11:24:30;99890.13;;;17.30;39.88
20630;BME280;17386;43.846;25.950;2023-03-15T11:27:02;99884.91;;;17.62;39.17
20630;BME280;17386;43.846;25.950;2023-03-15T11:29:33;99882.22;;;17.62;38.56
20630;BME280;17386;43.846;25.950;2023-03-15T11:32:01;99872.50;;;17.94;38.03
20630;BME280;17386;43.846;25.950;2023-03-15T11:34:44;99868.69;;;18.30;36.71
20630;BME280;17386;43.846;25.950;2023-03-15T11:37:20;99868.00;;;18.61;36.18
20630;BME280;17386;43.846;25.950;2023-03-15T11:40:04;99860.75;;;18.72;35.79
20630;BME280;17386;43.846;25.950;2023-03-15T11:42:44;99860.59;;;18.85;35.69
20630;BME280;17386;43.846;25.950;2023-03-15T11:47:54;99854.25;;;19.07;34.99
20630;BME280;17386;43.846;25.950;2023-03-15T11:50:20;99855.09;;;19.07;35.01
20630;BME280;17386;43.846;25.950;2023-03-15T11:52:47;99855.97;;;19.08;34.91
20630;BME280;17386;43.846;25.950;2023-03-15T11:55:19;99856.41;;;18.92;34.97
20630;BME280;17386;43.846;25.950;2023-03-15T11:57:48;99856.34;;;18.82;34.60
20630;BME280;17386;43.846;25.950;2023-03-15T12:03:32;99856.50;;;18.15;35.37
20630;BME280;17386;43.846;25.950;2023-03-15T12:06:08;99856.00;;;18.10;35.97
20630;BME280;17386;43.846;25.950;2023-03-15T12:08:46;99859.34;;;17.91;36.42
20630;BME280;17386;43.846;25.950;2023-03-15T12:16:22;99858.31;;;17.59;37.08
20630;BME280;17386;43.846;25.950;2023-03-15T12:18:48;99850.25;;;17.70;37.26
20630;BME280;17386;43.846;25.950;2023-03-15T12:21:18;99857.84;;;17.65;37.11
20630;BME280;17386;43.846;25.950;2023-03-15T12:24:03;99849.91;;;17.74;37.34
20630;BME280;17386;43.846;25.950;2023-03-15T12:26:35;99849.19;;;17.84;37.45
20630;BME280;17386;43.846;25.950;2023-03-15T12:32:16;99845.50;;;18.07;36.57
20630;BME280;17386;43.846;25.950;2023-03-15T12:34:56;99853.19;;;18.12;36.24
20630;BME280;17386;43.846;25.950;2023-03-15T12:37:27;99845.38;;;18.09;36.68
20630;BME280;17386;43.846;25.950;2023-03-15T12:55:50;99822.06;;;18.84;36.30
20630;BME280;17386;43.846;25.950;2023-03-15T12:58:18;99820.38;;;18.83;36.41
20630;BME280;17386;43.846;25.950;2023-03-15T13:00:45;99828.66;;;18.92;36.38
20630;BME280;17386;43.846;25.950;2023-03-15T13:03:18;99821.16;;;18.63;36.37
20630;BME280;17386;43.846;25.950;2023-03-15T13:06:08;99807.38;;;18.56;36.90
20630;BME280;17386;43.846;25.950;2023-03-15T13:08:55;99823.25;;;18.59;36.87
20630;BME280;17386;43.846;25.950;2023-03-15T13:11:30;99818.59;;;18.18;37.41
20630;BME280;17386;43.846;25.950;2023-03-15T13:14:37;99817.91;;;18.05;38.03
20630;BME280;17386;43.846;25.950;2023-03-15T13:17:23;99815.81;;;18.09;37.63
20630;BME280;17386;43.846;25.950;2023-03-15T13:19:55;99827.28;;;18.11;37.55
20630;BME280;17386;43.846;25.950;2023-03-15T13:22:31;99833.06;;;17.95;37.49
20630;BME280;17386;43.846;25.950;2023-03-15T13:25:02;99832.94;;;17.96;38.05
20630;BME280;17386;43.846;25.950;2023-03-15T13:33:05;99823.75;;;18.10;37.50
20630;BME280;17386;43.846;25.950;2023-03-15T13:35:31;99822.31;;;18.06;37.98
20630;BME280;17386;43.846;25.950;2023-03-15T13:40:59;99837.09;;;18.00;38.02
20630;BME280;17386;43.846;25.950;2023-03-15T13:43:29;99837.22;;;17.88;38.03
20630;BME280;17386;43.846;25.950;2023-03-15T13:45:56;99832.09;;;17.85;37.66
20630;BME280;17386;43.846;25.950;2023-03-15T13:48:25;99830.72;;;17.90;37.68
20630;BME280;17386;43.846;25.950;2023-03-15T13:50:51;99829.28;;;17.75;38.39